createdAt,value
2018-05-17T00:00:14.916Z,15.98
2018-05-17T00:01:14.942Z,15.92
2018-05-17T00:02:14.969Z,15.81
2018-05-17T00:03:14.995Z,15.85
2018-05-17T00:04:15.032Z,15.84
2018-05-17T00:05:15.052Z,15.95
2018-05-17T00:06:15.075Z,15.80
2018-05-17T00:07:15.109Z,15.73
2018-05-17T00:08:15.127Z,15.71
2018-05-17T00:09:15.157Z,15.53
2018-05-17T00:10:15.181Z,15.43
2018-05-17T00:11:15.207Z,15.44
2018-05-17T00:12:15.234Z,15.67
2018-05-17T00:13:15.263Z,15.60
2018-05-17T00:14:15.290Z,15.66
2018-05-17T00:15:15.314Z,15.51
2018-05-17T00:16:15.341Z,15.51
2018-05-17T00:17:15.370Z,15.49
2018-05-17T00:18:15.397Z,15.49
2018-05-17T00:19:15.422Z,15.48
2018-05-17T00:20:15.451Z,15.49
2018-05-17T00:21:15.476Z,15.41
2018-05-17T00:22:15.507Z,15.30
2018-05-17T00:23:15.528Z,15.34
2018-05-17T00:24:15.555Z,15.37
2018-05-17T00:25:15.582Z,15.33
2018-05-17T00:26:15.611Z,15.35
2018-05-17T00:27:15.636Z,15.49
2018-05-17T00:28:15.660Z,15.60
2018-05-17T00:29:15.780Z,15.41
2018-05-17T00:30:15.717Z,15.35
2018-05-17T00:31:15.742Z,15.33
2018-05-17T00:32:15.765Z,15.30
2018-05-17T00:33:15.793Z,15.28
2018-05-17T00:34:15.819Z,15.35
2018-05-17T00:35:15.844Z,15.38
2018-05-17T00:36:15.872Z,15.35
2018-05-17T00:37:15.902Z,15.37
2018-05-17T00:38:15.930Z,15.28
2018-05-17T00:39:15.953Z,15.11
2018-05-17T00:40:15.977Z,15.19
2018-05-17T00:41:16.003Z,15.13
2018-05-17T00:42:16.029Z,15.11
2018-05-17T00:43:16.064Z,15.20
2018-05-17T00:44:16.083Z,15.19
2018-05-17T00:45:16.109Z,15.22
2018-05-17T00:46:16.133Z,15.05
2018-05-17T00:47:16.159Z,14.97
2018-05-17T00:48:16.189Z,15.00
2018-05-17T00:49:16.213Z,14.97
2018-05-17T00:50:16.237Z,14.94
2018-05-17T00:51:16.269Z,14.98
2018-05-17T00:52:16.355Z,15.18
2018-05-17T00:53:16.317Z,15.28
2018-05-17T00:54:16.344Z,15.30
2018-05-17T00:55:16.369Z,15.35
2018-05-17T00:56:16.403Z,15.28
2018-05-17T00:57:16.426Z,15.28
2018-05-17T00:58:16.448Z,15.16
2018-05-17T00:59:16.476Z,14.98
2018-05-17T01:00:16.498Z,14.95
2018-05-17T01:01:16.529Z,14.74
2018-05-17T01:02:16.560Z,14.79
2018-05-17T01:03:16.583Z,14.83
2018-05-17T01:04:16.611Z,14.95
2018-05-17T01:05:16.633Z,14.97
2018-05-17T01:06:16.657Z,15.18
2018-05-17T01:07:16.687Z,15.16
2018-05-17T01:08:16.709Z,15.33
2018-05-17T01:09:16.741Z,15.33
2018-05-17T01:10:16.762Z,15.11
2018-05-17T01:11:16.787Z,15.07
2018-05-17T01:12:16.816Z,14.97
2018-05-17T01:13:16.842Z,14.91
2018-05-17T01:14:16.864Z,14.78
2018-05-17T01:15:16.896Z,14.97
2018-05-17T01:16:16.916Z,14.95
2018-05-17T01:17:16.942Z,14.93
2018-05-17T01:18:16.975Z,15.07
2018-05-17T01:19:16.997Z,15.04
2018-05-17T01:20:17.026Z,15.04
2018-05-17T01:21:17.051Z,14.98
2018-05-17T01:22:17.081Z,14.98
2018-05-17T01:23:17.101Z,15.00
2018-05-17T01:24:17.131Z,14.94
2018-05-17T01:25:17.152Z,14.95
2018-05-17T01:26:17.176Z,15.04
2018-05-17T01:27:17.206Z,14.94
2018-05-17T01:28:17.230Z,15.00
2018-05-17T01:29:17.260Z,15.04
2018-05-17T01:30:17.281Z,15.20
2018-05-17T01:31:17.312Z,15.09
2018-05-17T01:32:17.340Z,15.18
2018-05-17T01:33:17.369Z,15.09
2018-05-17T01:34:17.388Z,15.05
2018-05-17T01:35:17.413Z,15.03
2018-05-17T01:36:17.441Z,14.97
2018-05-17T01:37:17.469Z,14.95
2018-05-17T01:38:17.490Z,14.93
2018-05-17T01:39:17.516Z,14.91
2018-05-17T01:40:17.547Z,14.64
2018-05-17T01:41:17.571Z,14.44
2018-05-17T01:42:17.597Z,14.45
2018-05-17T01:43:17.621Z,14.57
2018-05-17T01:44:17.651Z,14.52
2018-05-17T01:45:17.675Z,14.63
2018-05-17T01:46:17.701Z,14.63
2018-05-17T01:47:17.725Z,14.78
2018-05-17T01:48:17.755Z,14.61
2018-05-17T01:49:17.777Z,14.64
2018-05-17T01:50:17.800Z,14.59
2018-05-17T01:51:17.843Z,14.54
2018-05-17T01:52:17.854Z,14.48
2018-05-17T01:53:17.888Z,14.49
2018-05-17T01:54:17.905Z,14.36
2018-05-17T01:55:17.931Z,14.44
2018-05-17T01:56:17.960Z,14.29
2018-05-17T01:57:17.985Z,14.12
2018-05-17T01:58:18.016Z,14.13
2018-05-17T01:59:18.039Z,14.08
2018-05-17T02:00:18.061Z,14.06
2018-05-17T02:01:18.091Z,13.93
2018-05-17T02:02:18.116Z,13.99
2018-05-17T02:03:18.139Z,14.04
2018-05-17T02:04:18.170Z,13.94
2018-05-17T02:05:18.199Z,14.02
2018-05-17T02:06:18.219Z,13.87
2018-05-17T02:07:18.244Z,13.94
2018-05-17T02:08:18.267Z,13.98
2018-05-17T02:09:18.291Z,14.05
2018-05-17T02:10:18.329Z,14.04
2018-05-17T02:11:18.345Z,14.04
2018-05-17T02:12:18.372Z,14.04
2018-05-17T02:13:18.395Z,14.04
2018-05-17T02:14:18.419Z,14.02
2018-05-17T02:15:18.445Z,14.13
2018-05-17T02:16:18.474Z,14.20
2018-05-17T02:17:18.498Z,14.16
2018-05-17T02:18:18.527Z,14.19
2018-05-17T02:19:18.572Z,14.19
2018-05-17T02:20:18.583Z,14.12
2018-05-17T02:21:18.602Z,14.04
2018-05-17T02:22:18.629Z,13.94
2018-05-17T02:23:18.655Z,14.04
2018-05-17T02:24:18.676Z,14.11
2018-05-17T02:25:18.704Z,14.08
2018-05-17T02:26:18.729Z,14.12
2018-05-17T02:27:18.754Z,14.08
2018-05-17T02:28:18.783Z,14.11
2018-05-17T02:29:18.812Z,14.06
2018-05-17T02:30:18.829Z,14.01
2018-05-17T02:31:18.859Z,14.04
2018-05-17T02:32:18.888Z,13.99
2018-05-17T02:33:18.909Z,13.91
2018-05-17T02:34:18.939Z,13.79
2018-05-17T02:35:18.959Z,13.79
2018-05-17T02:36:18.982Z,13.76
2018-05-17T02:37:19.013Z,13.81
2018-05-17T02:38:19.039Z,13.75
2018-05-17T02:39:19.057Z,13.79
2018-05-17T02:40:19.089Z,13.80
2018-05-17T02:41:19.108Z,13.76
2018-05-17T02:42:19.133Z,13.81
2018-05-17T02:43:19.160Z,13.80
2018-05-17T02:44:19.191Z,13.80
2018-05-17T02:45:19.214Z,13.80
2018-05-17T02:46:19.234Z,13.73
2018-05-17T02:47:19.258Z,13.76
2018-05-17T02:48:19.284Z,13.79
2018-05-17T02:49:19.312Z,13.91
2018-05-17T02:50:19.418Z,13.90
2018-05-17T02:51:19.359Z,14.06
2018-05-17T02:52:19.387Z,14.08
2018-05-17T02:53:19.413Z,14.11
2018-05-17T02:54:19.436Z,14.20
2018-05-17T02:55:19.465Z,14.19
2018-05-17T02:56:19.487Z,14.29
2018-05-17T02:57:19.513Z,14.13
2018-05-17T02:58:19.535Z,14.04
2018-05-17T02:59:19.562Z,14.06
2018-05-17T03:00:19.587Z,14.05
2018-05-17T03:01:19.620Z,14.04
2018-05-17T03:02:19.642Z,14.04
2018-05-17T03:03:19.667Z,14.08
2018-05-17T03:04:19.693Z,14.08
2018-05-17T03:05:19.712Z,14.16
2018-05-17T03:06:19.738Z,14.13
2018-05-17T03:07:19.780Z,14.19
2018-05-17T03:08:19.798Z,14.17
2018-05-17T03:09:19.819Z,14.16
2018-05-17T03:10:19.843Z,14.11
2018-05-17T03:11:19.867Z,14.16
2018-05-17T03:12:19.893Z,14.30
2018-05-17T03:13:19.918Z,14.08
2018-05-17T03:14:19.942Z,14.20
2018-05-17T03:15:19.969Z,14.13
2018-05-17T03:16:19.992Z,14.04
2018-05-17T03:17:20.017Z,14.04
2018-05-17T03:18:20.043Z,13.86
2018-05-17T03:19:20.068Z,14.01
2018-05-17T03:20:20.092Z,13.93
2018-05-17T03:21:20.117Z,13.88
2018-05-17T03:22:20.147Z,14.01
2018-05-17T03:23:20.168Z,13.94
2018-05-17T03:24:20.200Z,13.90
2018-05-17T03:25:20.219Z,13.90
2018-05-17T03:26:20.252Z,14.01
2018-05-17T03:27:20.273Z,13.93
2018-05-17T03:28:20.302Z,13.99
2018-05-17T03:29:20.326Z,14.09
2018-05-17T03:30:20.346Z,14.06
2018-05-17T03:31:20.373Z,14.12
2018-05-17T03:32:20.400Z,14.05
2018-05-17T03:33:20.426Z,14.05
2018-05-17T03:34:20.447Z,14.11
2018-05-17T03:35:20.473Z,14.13
2018-05-17T03:36:20.496Z,14.19
2018-05-17T03:37:20.522Z,14.26
2018-05-17T03:38:20.553Z,14.24
2018-05-17T03:39:20.572Z,14.04
2018-05-17T03:40:20.598Z,14.04
2018-05-17T03:41:20.624Z,13.98
2018-05-17T03:42:20.647Z,13.88
2018-05-17T03:43:20.680Z,13.88
2018-05-17T03:44:20.709Z,13.80
2018-05-17T03:45:20.726Z,13.69
2018-05-17T03:46:20.757Z,13.61
2018-05-17T03:47:20.780Z,13.63
2018-05-17T03:48:20.807Z,13.61
2018-05-17T03:49:20.848Z,13.68
2018-05-17T03:50:20.855Z,13.69
2018-05-17T03:51:20.875Z,13.76
2018-05-17T03:52:20.901Z,13.80
2018-05-17T03:53:20.925Z,13.91
2018-05-17T03:54:20.951Z,13.93
2018-05-17T03:55:20.975Z,14.02
2018-05-17T03:56:21.004Z,14.01
2018-05-17T03:57:21.037Z,13.79
2018-05-17T03:58:21.051Z,13.65
2018-05-17T03:59:21.075Z,13.69
2018-05-17T04:00:21.104Z,13.69
2018-05-17T04:01:21.193Z,13.71
2018-05-17T04:02:21.159Z,13.71
2018-05-17T04:03:21.179Z,13.80
2018-05-17T04:04:21.200Z,13.87
2018-05-17T04:05:21.231Z,13.93
2018-05-17T04:06:21.259Z,13.94
2018-05-17T04:07:21.276Z,13.99
2018-05-17T04:08:21.308Z,13.88
2018-05-17T04:09:21.330Z,13.76
2018-05-17T04:10:21.352Z,13.68
2018-05-17T04:11:21.386Z,13.76
2018-05-17T04:12:21.403Z,13.84
2018-05-17T04:13:21.429Z,13.83
2018-05-17T04:14:21.458Z,13.91
2018-05-17T04:15:21.481Z,13.87
2018-05-17T04:16:21.508Z,13.88
2018-05-17T04:17:21.530Z,13.93
2018-05-17T04:18:21.554Z,13.94
2018-05-17T04:19:21.580Z,13.98
2018-05-17T04:20:21.604Z,14.04
2018-05-17T04:21:21.634Z,14.06
2018-05-17T04:22:21.658Z,14.05
2018-05-17T04:23:21.684Z,13.96
2018-05-17T04:24:21.705Z,14.02
2018-05-17T04:25:21.731Z,14.08
2018-05-17T04:26:21.754Z,14.05
2018-05-17T04:27:21.783Z,14.16
2018-05-17T04:28:21.806Z,14.19
2018-05-17T04:29:21.956Z,14.31
2018-05-17T04:30:21.854Z,14.29
2018-05-17T04:31:21.882Z,14.19
2018-05-17T04:32:21.906Z,14.12
2018-05-17T04:33:21.934Z,14.13
2018-05-17T04:34:21.965Z,13.87
2018-05-17T04:35:21.983Z,13.72
2018-05-17T04:36:22.007Z,13.79
2018-05-17T04:37:22.035Z,13.68
2018-05-17T04:38:22.053Z,13.68
2018-05-17T04:39:22.087Z,13.81
2018-05-17T04:40:22.112Z,13.76
2018-05-17T04:41:22.134Z,13.81
2018-05-17T04:42:22.166Z,13.79
2018-05-17T04:43:22.184Z,14.02
2018-05-17T04:44:22.210Z,14.01
2018-05-17T04:45:22.233Z,13.96
2018-05-17T04:46:22.259Z,14.05
2018-05-17T04:47:22.284Z,14.08
2018-05-17T04:48:22.309Z,14.04
2018-05-17T04:49:22.337Z,14.16
2018-05-17T04:50:22.368Z,14.19
2018-05-17T04:51:22.403Z,14.13
2018-05-17T04:52:22.408Z,14.08
2018-05-17T04:53:22.433Z,14.19
2018-05-17T04:54:22.466Z,14.02
2018-05-17T04:55:22.487Z,13.94
2018-05-17T04:56:22.513Z,13.80
2018-05-17T04:57:22.535Z,13.90
2018-05-17T04:58:22.566Z,13.79
2018-05-17T04:59:22.593Z,13.75
2018-05-17T05:00:22.617Z,13.83
2018-05-17T05:01:22.646Z,13.88
2018-05-17T05:02:22.664Z,13.73
2018-05-17T05:03:22.689Z,13.87
2018-05-17T05:04:22.711Z,13.93
2018-05-17T05:05:22.743Z,14.06
2018-05-17T05:06:22.772Z,14.06
2018-05-17T05:07:22.788Z,13.99
2018-05-17T05:08:22.813Z,14.19
2018-05-17T05:09:22.861Z,14.34
2018-05-17T05:10:22.865Z,14.35
2018-05-17T05:11:22.890Z,14.34
2018-05-17T05:12:22.913Z,14.27
2018-05-17T05:13:22.942Z,14.16
2018-05-17T05:14:22.964Z,14.35
2018-05-17T05:15:22.997Z,14.29
2018-05-17T05:16:23.017Z,14.06
2018-05-17T05:17:23.042Z,14.04
2018-05-17T05:18:23.069Z,13.99
2018-05-17T05:19:23.087Z,14.02
2018-05-17T05:20:23.117Z,14.02
2018-05-17T05:21:23.157Z,14.09
2018-05-17T05:22:23.169Z,14.04
2018-05-17T05:23:23.194Z,13.96
2018-05-17T05:24:23.217Z,14.04
2018-05-17T05:25:23.257Z,14.08
2018-05-17T05:26:23.269Z,14.11
2018-05-17T05:27:23.291Z,14.24
2018-05-17T05:28:23.318Z,14.30
2018-05-17T05:29:23.347Z,14.27
2018-05-17T05:30:23.369Z,14.27
2018-05-17T05:31:23.391Z,14.29
2018-05-17T05:32:23.423Z,14.35
2018-05-17T05:33:23.452Z,14.42
2018-05-17T05:34:23.475Z,14.44
2018-05-17T05:35:23.499Z,14.59
2018-05-17T05:36:23.528Z,14.30
2018-05-17T05:37:23.546Z,14.20
2018-05-17T05:38:23.571Z,14.19
2018-05-17T05:39:23.601Z,14.16
2018-05-17T05:40:23.622Z,14.13
2018-05-17T05:41:23.651Z,14.16
2018-05-17T05:42:23.685Z,14.12
2018-05-17T05:43:23.700Z,14.19
2018-05-17T05:44:23.721Z,14.02
2018-05-17T05:45:23.751Z,13.96
2018-05-17T05:46:23.782Z,14.11
2018-05-17T05:47:23.799Z,14.16
2018-05-17T05:48:23.827Z,14.13
2018-05-17T05:49:23.853Z,14.11
2018-05-17T05:50:23.876Z,14.05
2018-05-17T05:51:23.901Z,14.12
2018-05-17T05:52:23.929Z,14.13
2018-05-17T05:53:23.957Z,14.23
2018-05-17T05:54:23.975Z,14.42
2018-05-17T05:55:24.010Z,14.49
2018-05-17T05:56:24.030Z,14.54
2018-05-17T05:57:24.056Z,14.72
2018-05-17T05:58:24.084Z,14.59
2018-05-17T05:59:24.103Z,14.63
2018-05-17T06:00:24.131Z,14.72
2018-05-17T06:01:24.159Z,14.79
2018-05-17T06:02:24.189Z,14.94
2018-05-17T06:03:24.205Z,14.94
2018-05-17T06:04:24.229Z,15.05
2018-05-17T06:05:24.260Z,15.07
2018-05-17T06:06:24.289Z,15.03
2018-05-17T06:07:24.313Z,15.07
2018-05-17T06:08:24.400Z,14.97
2018-05-17T06:09:24.364Z,14.97
2018-05-17T06:10:24.387Z,15.09
2018-05-17T06:11:24.418Z,15.00
2018-05-17T06:12:24.447Z,15.19
2018-05-17T06:13:24.470Z,15.15
2018-05-17T06:14:24.490Z,14.95
2018-05-17T06:15:24.524Z,14.93
2018-05-17T06:16:24.538Z,14.93
2018-05-17T06:17:24.649Z,15.01
2018-05-17T06:18:24.595Z,14.97
2018-05-17T06:19:24.626Z,15.01
2018-05-17T06:20:24.645Z,14.94
2018-05-17T06:21:24.669Z,14.91
2018-05-17T06:22:24.700Z,14.79
2018-05-17T06:23:24.725Z,14.83
2018-05-17T06:24:24.749Z,14.80
2018-05-17T06:25:24.782Z,14.90
2018-05-17T06:26:24.804Z,14.90
2018-05-17T06:27:24.833Z,14.94
2018-05-17T06:28:24.858Z,15.07
2018-05-17T06:29:24.882Z,15.05
2018-05-17T06:30:24.924Z,15.16
2018-05-17T06:31:24.929Z,15.00
2018-05-17T06:32:24.958Z,15.07
2018-05-17T06:33:24.985Z,15.09
2018-05-17T06:34:25.017Z,15.00
2018-05-17T06:35:25.036Z,15.05
2018-05-17T06:36:25.065Z,15.09
2018-05-17T06:37:25.097Z,15.09
2018-05-17T06:38:25.121Z,15.16
2018-05-17T06:39:25.147Z,15.25
2018-05-17T06:40:25.177Z,15.38
2018-05-17T06:41:25.195Z,15.41
2018-05-17T06:42:25.221Z,15.38
2018-05-17T06:43:25.244Z,15.27
2018-05-17T06:44:25.293Z,15.44
2018-05-17T06:45:25.304Z,15.44
2018-05-17T06:46:25.324Z,15.49
2018-05-17T06:47:25.358Z,15.49
2018-05-17T06:48:25.380Z,15.46
2018-05-17T06:49:25.403Z,15.59
2018-05-17T06:50:25.429Z,15.49
2018-05-17T06:51:25.459Z,15.28
2018-05-17T06:52:25.483Z,15.11
2018-05-17T06:53:25.512Z,15.01
2018-05-17T06:54:25.540Z,15.25
2018-05-17T06:55:25.558Z,15.25
2018-05-17T06:56:25.638Z,15.38
2018-05-17T06:57:25.616Z,15.40
2018-05-17T06:58:25.637Z,15.53
2018-05-17T06:59:25.667Z,15.55
2018-05-17T07:00:25.692Z,15.56
2018-05-17T07:01:25.723Z,15.58
2018-05-17T07:02:25.747Z,15.68
2018-05-17T07:03:25.771Z,15.73
2018-05-17T07:04:25.801Z,15.78
2018-05-17T07:05:25.830Z,15.71
2018-05-17T07:06:25.856Z,15.40
2018-05-17T07:07:25.877Z,15.49
2018-05-17T07:08:25.907Z,15.55
2018-05-17T07:09:25.937Z,15.28
2018-05-17T07:10:25.990Z,15.28
2018-05-17T07:11:25.990Z,15.04
2018-05-17T07:12:26.017Z,15.18
2018-05-17T07:13:26.040Z,15.22
2018-05-17T07:14:26.073Z,15.38
2018-05-17T07:15:26.096Z,15.49
2018-05-17T07:16:26.120Z,15.62
2018-05-17T07:17:26.151Z,15.60
2018-05-17T07:18:26.304Z,15.70
2018-05-17T07:19:26.204Z,15.64
2018-05-17T07:20:26.222Z,15.77
2018-05-17T07:21:26.252Z,15.93
2018-05-17T07:22:26.276Z,15.99
2018-05-17T07:23:26.309Z,16.25
2018-05-17T07:24:26.335Z,16.34
2018-05-17T07:25:26.359Z,16.10
2018-05-17T07:26:26.387Z,15.96
2018-05-17T07:27:26.412Z,15.67
2018-05-17T07:28:26.437Z,15.33
2018-05-17T07:29:26.463Z,15.35
2018-05-17T07:30:26.492Z,15.48
2018-05-17T07:31:26.545Z,15.44
2018-05-17T07:32:26.549Z,15.37
2018-05-17T07:33:26.574Z,15.40
2018-05-17T07:34:26.596Z,15.46
2018-05-17T07:35:26.624Z,15.44
2018-05-17T07:36:26.651Z,15.53
2018-05-17T07:37:26.679Z,15.56
2018-05-17T07:38:26.705Z,15.58
2018-05-17T07:39:26.739Z,15.78
2018-05-17T07:40:26.755Z,15.81
2018-05-17T07:41:26.792Z,15.92
2018-05-17T07:42:26.818Z,16.01
2018-05-17T07:43:26.835Z,16.11
2018-05-17T07:44:26.867Z,16.01
2018-05-17T07:45:26.888Z,15.85
2018-05-17T07:46:26.921Z,15.88
2018-05-17T07:47:26.949Z,15.76
2018-05-17T07:48:26.971Z,15.60
2018-05-17T07:49:27.002Z,15.66
2018-05-17T07:50:27.029Z,15.74
2018-05-17T07:51:27.066Z,15.66
2018-05-17T07:52:27.077Z,15.53
2018-05-17T07:53:27.104Z,15.56
2018-05-17T07:54:27.140Z,15.52
2018-05-17T07:55:27.160Z,15.53
2018-05-17T07:56:27.186Z,15.53
2018-05-17T07:57:27.218Z,15.68
2018-05-17T07:58:27.243Z,15.77
2018-05-17T07:59:27.274Z,15.76
2018-05-17T08:00:27.327Z,15.74
2018-05-17T08:01:27.320Z,15.77
2018-05-17T08:02:27.353Z,15.76
2018-05-17T08:03:27.375Z,15.66
2018-05-17T08:04:27.406Z,15.74
2018-05-17T08:05:27.432Z,15.98
2018-05-17T08:06:27.470Z,16.11
2018-05-17T08:07:27.486Z,16.01
2018-05-17T08:08:27.515Z,16.16
2018-05-17T08:09:27.652Z,16.22
2018-05-17T08:10:27.569Z,16.29
2018-05-17T08:11:27.593Z,16.27
2018-05-17T08:12:27.620Z,15.96
2018-05-17T08:13:27.645Z,15.96
2018-05-17T08:14:27.670Z,15.93
2018-05-17T08:15:27.701Z,16.08
2018-05-17T08:16:27.736Z,16.27
2018-05-17T08:17:27.758Z,16.27
2018-05-17T08:18:27.781Z,16.11
2018-05-17T08:19:27.806Z,16.23
2018-05-17T08:20:27.837Z,16.27
2018-05-17T08:21:27.861Z,16.03
2018-05-17T08:22:27.904Z,15.74
2018-05-17T08:23:27.918Z,15.92
2018-05-17T08:24:27.948Z,15.93
2018-05-17T08:25:27.968Z,15.95
2018-05-17T08:26:27.994Z,15.74
2018-05-17T08:27:28.021Z,15.80
2018-05-17T08:28:28.053Z,15.71
2018-05-17T08:29:28.083Z,15.73
2018-05-17T08:30:28.104Z,15.80
2018-05-17T08:31:28.133Z,15.76
2018-05-17T08:32:28.163Z,15.80
2018-05-17T08:33:28.183Z,15.88
2018-05-17T08:34:28.216Z,15.99
2018-05-17T08:35:28.238Z,15.77
2018-05-17T08:36:28.420Z,15.77
2018-05-17T08:37:28.293Z,15.73
2018-05-17T08:38:28.327Z,15.78
2018-05-17T08:39:28.365Z,15.92
2018-05-17T08:40:28.383Z,16.26
2018-05-17T08:41:28.408Z,16.37
2018-05-17T08:42:28.459Z,16.50
2018-05-17T08:43:28.459Z,16.36
2018-05-17T08:44:28.484Z,16.66
2018-05-17T08:45:28.510Z,16.70
2018-05-17T08:46:28.539Z,16.72
2018-05-17T08:47:28.563Z,16.45
2018-05-17T08:48:28.598Z,16.54
2018-05-17T08:49:28.627Z,16.33
2018-05-17T08:50:28.648Z,16.44
2018-05-17T08:51:28.678Z,16.34
2018-05-17T08:52:28.703Z,16.37
2018-05-17T08:53:28.729Z,16.23
2018-05-17T08:54:28.803Z,16.10
2018-05-17T08:55:28.783Z,15.92
2018-05-17T08:56:28.813Z,15.76
2018-05-17T08:57:28.839Z,15.92
2018-05-17T08:58:28.869Z,15.81
2018-05-17T08:59:28.895Z,15.85
2018-05-17T09:00:28.924Z,16.04
2018-05-17T09:01:28.953Z,16.11
2018-05-17T09:02:28.980Z,16.26
2018-05-17T09:03:29.011Z,16.37
2018-05-17T09:04:29.037Z,16.54
2018-05-17T09:05:29.057Z,16.57
2018-05-17T09:06:29.091Z,16.60
2018-05-17T09:07:29.116Z,16.50
2018-05-17T09:08:29.145Z,16.37
2018-05-17T09:09:29.171Z,16.01
2018-05-17T09:10:29.199Z,15.93
2018-05-17T09:11:29.223Z,16.25
2018-05-17T09:12:29.259Z,16.22
2018-05-17T09:13:29.356Z,16.47
2018-05-17T09:14:29.307Z,16.48
2018-05-17T09:15:29.338Z,16.51
2018-05-17T09:16:29.361Z,16.72
2018-05-17T09:17:29.400Z,16.95
2018-05-17T09:18:29.418Z,16.87
2018-05-17T09:19:29.442Z,16.80
2018-05-17T09:20:29.500Z,16.59
2018-05-17T09:21:29.510Z,16.67
2018-05-17T09:22:29.530Z,16.72
2018-05-17T09:23:29.551Z,16.96
2018-05-17T09:24:29.582Z,16.91
2018-05-17T09:25:29.611Z,16.80
2018-05-17T09:26:29.640Z,16.78
2018-05-17T09:27:29.673Z,16.96
2018-05-17T09:28:29.690Z,16.87
2018-05-17T09:29:29.720Z,16.88
2018-05-17T09:30:29.747Z,16.75
2018-05-17T09:31:29.775Z,16.42
2018-05-17T09:32:29.808Z,16.65
2018-05-17T09:33:29.836Z,16.62
2018-05-17T09:34:29.859Z,16.63
2018-05-17T09:35:29.889Z,16.62
2018-05-17T09:36:29.913Z,16.60
2018-05-17T09:37:29.945Z,16.67
2018-05-17T09:38:29.972Z,16.67
2018-05-17T09:39:30.000Z,16.44
2018-05-17T09:40:30.023Z,16.85
2018-05-17T09:41:30.080Z,17.22
2018-05-17T09:42:30.078Z,17.38
2018-05-17T09:43:30.115Z,17.65
2018-05-17T09:44:30.136Z,17.91
2018-05-17T09:45:30.167Z,18.01
2018-05-17T09:46:30.192Z,18.14
2018-05-17T09:47:30.263Z,17.98
2018-05-17T09:48:30.249Z,17.42
2018-05-17T09:49:30.280Z,17.68
2018-05-17T09:50:30.311Z,17.43
2018-05-17T09:51:30.338Z,17.38
2018-05-17T09:52:30.369Z,17.28
2018-05-17T09:53:30.384Z,17.21
2018-05-17T09:54:30.425Z,17.22
2018-05-17T09:55:30.448Z,17.32
2018-05-17T09:56:30.469Z,17.20
2018-05-17T09:57:30.496Z,17.39
2018-05-17T09:58:30.536Z,17.32
2018-05-17T09:59:30.556Z,17.06
2018-05-17T10:00:30.585Z,17.03
2018-05-17T10:01:30.613Z,17.24
2018-05-17T10:02:30.643Z,17.49
2018-05-17T10:03:30.669Z,17.14
2018-05-17T10:04:30.695Z,17.21
2018-05-17T10:05:30.760Z,17.35
2018-05-17T10:06:30.755Z,16.98
2018-05-17T10:07:30.784Z,17.15
2018-05-17T10:08:30.818Z,17.18
2018-05-17T10:09:30.836Z,17.24
2018-05-17T10:10:30.869Z,17.30
2018-05-17T10:11:30.894Z,17.39
2018-05-17T10:12:30.924Z,17.18
2018-05-17T10:13:30.958Z,17.15
2018-05-17T10:14:31.076Z,17.27
2018-05-17T10:15:31.018Z,17.32
2018-05-17T10:16:31.038Z,17.46
2018-05-17T10:17:31.077Z,17.54
2018-05-17T10:18:31.094Z,17.07
2018-05-17T10:19:31.131Z,16.92
2018-05-17T10:20:31.148Z,16.91
2018-05-17T10:21:31.180Z,16.87
2018-05-17T10:22:31.209Z,16.73
2018-05-17T10:23:31.235Z,16.95
2018-05-17T10:24:31.265Z,16.91
2018-05-17T10:25:31.291Z,17.05
2018-05-17T10:26:31.319Z,16.91
2018-05-17T10:27:31.353Z,16.91
2018-05-17T10:28:31.376Z,16.96
2018-05-17T10:29:31.426Z,16.87
2018-05-17T10:30:31.438Z,17.25
2018-05-17T10:31:31.463Z,17.05
2018-05-17T10:32:31.491Z,17.06
2018-05-17T10:33:31.521Z,17.25
2018-05-17T10:34:31.551Z,17.12
2018-05-17T10:35:31.577Z,17.07
2018-05-17T10:36:31.602Z,17.47
2018-05-17T10:37:31.633Z,17.49
2018-05-17T10:38:31.660Z,17.49
2018-05-17T10:39:31.692Z,17.55
2018-05-17T10:40:31.722Z,17.76
2018-05-17T10:41:31.747Z,17.94
2018-05-17T10:42:31.773Z,17.98
2018-05-17T10:43:31.797Z,18.07
2018-05-17T10:44:31.832Z,18.21
2018-05-17T10:45:31.859Z,18.38
2018-05-17T10:46:31.887Z,18.39
2018-05-17T10:47:31.973Z,18.38
2018-05-17T10:48:31.943Z,18.74
2018-05-17T10:49:31.976Z,18.76
2018-05-17T10:50:32.003Z,18.53
2018-05-17T10:51:32.036Z,18.56
2018-05-17T10:52:32.065Z,18.56
2018-05-17T10:53:32.109Z,18.59
2018-05-17T10:54:32.158Z,18.39
2018-05-17T10:55:32.146Z,18.41
2018-05-17T10:56:32.177Z,18.14
2018-05-17T10:57:32.212Z,18.02
2018-05-17T10:58:32.232Z,18.44
2018-05-17T10:59:32.264Z,19.27
2018-05-17T11:00:32.292Z,19.21
2018-05-17T11:01:32.321Z,19.57
2018-05-17T11:02:32.454Z,19.07
2018-05-17T11:03:32.378Z,18.71
2018-05-17T11:04:32.412Z,18.65
2018-05-17T11:05:32.445Z,19.28
2018-05-17T11:06:32.466Z,19.75
2018-05-17T11:07:32.507Z,20.56
2018-05-17T11:08:32.529Z,20.10
2018-05-17T11:09:32.565Z,20.78
2018-05-17T11:10:32.588Z,21.06
2018-05-17T11:11:32.625Z,20.91
2018-05-17T11:12:32.653Z,20.44
2018-05-17T11:13:32.686Z,20.02
2018-05-17T11:14:32.716Z,18.84
2018-05-17T11:15:32.742Z,18.36
2018-05-17T11:16:32.775Z,19.67
2018-05-17T11:17:32.801Z,21.73
2018-05-17T11:18:32.832Z,22.67
2018-05-17T11:19:32.869Z,22.24
2018-05-17T11:20:32.896Z,21.43
2018-05-17T11:21:32.930Z,21.03
2018-05-17T11:22:32.956Z,20.57
2018-05-17T11:23:32.992Z,20.54
2018-05-17T11:24:33.021Z,19.62
2018-05-17T11:25:33.055Z,19.68
2018-05-17T11:26:33.086Z,19.47
2018-05-17T11:27:33.116Z,19.39
2018-05-17T11:28:33.146Z,20.04
2018-05-17T11:29:33.175Z,20.15
2018-05-17T11:30:33.210Z,20.04
2018-05-17T11:31:33.241Z,20.44
2018-05-17T11:32:33.277Z,21.03
2018-05-17T11:33:33.299Z,20.88
2018-05-17T11:34:33.335Z,22.30
2018-05-17T11:35:33.365Z,23.50
2018-05-17T11:36:33.393Z,23.42
2018-05-17T11:37:33.426Z,22.39
2018-05-17T11:38:33.550Z,22.88
2018-05-17T11:39:33.488Z,23.64
2018-05-17T11:40:33.522Z,23.11
2018-05-17T11:41:33.555Z,24.05
2018-05-17T11:42:33.581Z,23.23
2018-05-17T11:43:33.615Z,22.44
2018-05-17T11:44:33.644Z,21.28
2018-05-17T11:45:33.676Z,21.11
2018-05-17T11:46:33.721Z,20.66
2018-05-17T11:47:33.743Z,21.28
2018-05-17T11:48:33.778Z,20.27
2018-05-17T11:49:33.815Z,19.46
2018-05-17T11:50:33.841Z,19.21
2018-05-17T11:51:33.870Z,18.72
2018-05-17T11:52:33.900Z,18.34
2018-05-17T11:53:33.934Z,18.78
2018-05-17T11:54:33.967Z,18.71
2018-05-17T11:55:33.999Z,18.87
2018-05-17T11:56:34.023Z,19.10
2018-05-17T11:57:34.057Z,19.09
2018-05-17T11:58:34.091Z,18.99
2018-05-17T11:59:34.127Z,18.76
2018-05-17T12:00:34.157Z,18.96
2018-05-17T12:01:34.281Z,19.40
2018-05-17T12:02:34.218Z,19.40
2018-05-17T12:03:34.243Z,19.02
2018-05-17T12:04:34.275Z,19.17
2018-05-17T12:05:34.300Z,18.86
2018-05-17T12:06:34.337Z,18.75
2018-05-17T12:07:34.370Z,19.01
2018-05-17T12:08:34.392Z,19.75
2018-05-17T12:09:34.427Z,20.26
2018-05-17T12:10:34.469Z,20.07
2018-05-17T12:11:34.487Z,20.26
2018-05-17T12:12:34.511Z,19.94
2018-05-17T12:13:34.545Z,19.55
2018-05-17T12:14:34.572Z,19.01
2018-05-17T12:15:34.604Z,18.66
2018-05-17T12:16:34.636Z,18.51
2018-05-17T12:17:34.671Z,18.49
2018-05-17T12:18:34.704Z,18.20
2018-05-17T12:19:34.725Z,18.10
2018-05-17T12:20:34.754Z,18.04
2018-05-17T12:21:34.784Z,17.73
2018-05-17T12:22:34.816Z,17.76
2018-05-17T12:23:34.876Z,17.77
2018-05-17T12:24:34.873Z,17.43
2018-05-17T12:25:34.905Z,17.36
2018-05-17T12:26:34.935Z,17.35
2018-05-17T12:27:34.968Z,17.39
2018-05-17T12:28:35.044Z,17.32
2018-05-17T12:29:35.032Z,17.24
2018-05-17T12:30:35.048Z,16.84
2018-05-17T12:31:35.082Z,16.69
2018-05-17T12:32:35.109Z,16.72
2018-05-17T12:33:35.140Z,16.77
2018-05-17T12:34:35.169Z,16.75
2018-05-17T12:35:35.197Z,16.63
2018-05-17T12:36:35.224Z,16.73
2018-05-17T12:37:35.262Z,16.75
2018-05-17T12:38:35.286Z,16.73
2018-05-17T12:39:35.308Z,16.72
2018-05-17T12:40:35.338Z,16.62
2018-05-17T12:41:35.372Z,16.60
2018-05-17T12:42:35.391Z,16.57
2018-05-17T12:43:35.422Z,16.34
2018-05-17T12:44:35.455Z,16.34
2018-05-17T12:45:35.478Z,16.29
2018-05-17T12:46:35.513Z,16.45
2018-05-17T12:47:35.533Z,16.52
2018-05-17T12:48:35.568Z,16.52
2018-05-17T12:49:35.613Z,16.50
2018-05-17T12:50:35.626Z,16.62
2018-05-17T12:51:35.654Z,16.70
2018-05-17T12:52:35.678Z,16.59